Time;durP1;ratioP1;P1;durP2;ratioP2;P2;SDS_P1;SDS_P2;PMS_P1;PMS_P2;Temp;Humidity;BMP_temperature;BMP_pressure;BME280_temperature;BME280_humidity;BME280_pressure;Samples;Min_cycle;Max_cycle;Signal;HPM_P1;HPM_P2
2023/04/29 00:00:00;;;;;;;3.37;3.17;;;;;;;13.69;100.00;99963.75;5020082;28;20633;-73
2023/04/29 00:02:27;;;;;;;3.37;3.17;;;;;;;13.67;100.00;99959.50;5020290;28;20201;-75
2023/04/29 00:04:53;;;;;;;3.30;3.00;;;;;;;13.65;100.00;99958.69;5017115;28;20211;-75
2023/04/29 00:07:18;;;;;;;3.80;3.20;;;;;;;13.65;100.00;99958.69;5022834;28;20202;-74
2023/04/29 00:09:44;;;;;;;3.80;3.20;;;;;;;13.63;100.00;99969.13;5021676;28;20180;-75
2023/04/29 00:12:09;;;;;;;3.10;2.90;;;;;;;13.61;100.00;99957.91;5021523;28;20225;-74
2023/04/29 00:14:35;;;;;;;2.97;2.77;;;;;;;13.61;100.00;99957.09;5023054;28;20190;-75
2023/04/29 00:17:00;;;;;;;3.23;3.03;;;;;;;13.57;100.00;99964.09;5022823;28;20222;-75
2023/04/29 00:19:25;;;;;;;3.30;3.00;;;;;;;13.56;100.00;99959.78;5023599;28;20193;-74
2023/04/29 00:21:51;;;;;;;3.20;3.00;;;;;;;13.54;100.00;99962.44;5019572;28;20685;-75
2023/04/29 00:24:16;;;;;;;3.53;3.20;;;;;;;13.52;100.00;99969.41;5021091;28;20260;-75
2023/04/29 00:26:41;;;;;;;3.33;3.13;;;;;;;13.50;100.00;99967.75;5021237;28;21049;-74
2023/04/29 00:29:08;;;;;;;3.83;3.40;;;;;;;13.49;100.00;99966.06;5021904;28;20293;-75
2023/04/29 00:31:33;;;;;;;3.50;3.30;;;;;;;13.46;100.00;99966.97;5021703;28;20309;-75
2023/04/29 00:33:59;;;;;;;3.70;3.50;;;;;;;13.45;100.00;99970.47;5019871;28;20264;-75
2023/04/29 00:36:25;;;;;;;4.13;3.83;;;;;;;13.45;100.00;99967.00;5022178;28;20242;-74
2023/04/29 00:38:50;;;;;;;3.97;3.53;;;;;;;13.44;100.00;99965.31;5021596;28;20191;-74
2023/04/29 00:41:15;;;;;;;4.03;3.73;;;;;;;13.43;100.00;99967.06;5023259;28;20214;-74
2023/04/29 00:43:40;;;;;;;3.97;3.67;;;;;;;13.42;100.00;99970.56;5021305;28;20731;-74
2023/04/29 00:46:06;;;;;;;3.47;3.27;;;;;;;13.40;100.00;99969.75;5020736;28;20188;-74
2023/04/29 00:48:32;;;;;;;4.20;3.90;;;;;;;13.37;100.00;99968.06;5014353;28;20712;-75
2023/04/29 00:50:57;;;;;;;3.70;3.50;;;;;;;13.36;100.00;99970.66;5021012;28;20200;-75
2023/04/29 00:53:23;;;;;;;4.27;3.87;;;;;;;13.35;100.00;99971.56;5021144;28;20190;-75
2023/04/29 00:55:50;;;;;;;4.00;3.70;;;;;;;13.35;100.00;99974.16;5022852;28;20259;-74
2023/04/29 00:58:17;;;;;;;4.40;4.00;;;;;;;13.32;100.00;99984.63;5023736;28;20294;-74
2023/04/29 01:00:42;;;;;;;4.40;4.10;;;;;;;13.30;100.00;99986.44;5019303;28;20218;-74
2023/04/29 01:03:08;;;;;;;4.13;3.67;;;;;;;13.28;100.00;99989.06;5022497;28;20223;-74
2023/04/29 01:05:34;;;;;;;4.57;4.17;;;;;;;13.26;100.00;99983.91;5023659;28;20194;-77
2023/04/29 01:08:21;;;;;;;4.20;3.90;;;;;;;13.24;100.00;99980.50;5011110;28;20212;-75
2023/04/29 01:11:09;;;;;;;4.20;3.90;;;;;;;13.20;100.00;99986.66;5010406;28;20210;-74
2023/04/29 01:13:57;;;;;;;4.30;4.00;;;;;;;13.20;100.00;99980.63;5024724;28;20312;-74
2023/04/29 01:16:30;;;;;;;4.60;4.30;;;;;;;13.15;100.00;99983.31;5021934;28;20230;-74
2023/04/29 01:19:06;;;;;;;5.00;3.87;;;;;;;13.14;100.00;99988.53;5019127;28;20658;-76
2023/04/29 01:21:31;;;;;;;4.20;3.90;;;;;;;13.10;100.00;99983.41;5016415;28;20233;-73
2023/04/29 01:23:57;;;;;;;4.43;4.03;;;;;;;13.08;100.00;99985.19;5018725;28;20731;-75
2023/04/29 01:26:23;;;;;;;4.00;3.70;;;;;;;13.07;100.00;99985.25;5021753;28;20182;-75
2023/04/29 01:29:18;;;;;;;4.33;4.03;;;;;;;13.05;100.00;99984.41;5022271;28;20199;-75
2023/04/29 01:31:50;;;;;;;4.20;3.83;;;;;;;13.04;100.00;99982.72;5018674;28;20215;-75
2023/04/29 01:34:22;;;;;;;4.23;3.93;;;;;;;13.02;100.00;99987.97;5019799;28;20278;-74
2023/04/29 01:37:03;;;;;;;4.80;4.50;;;;;;;13.04;100.00;99985.31;5018594;28;20180;-74
2023/04/29 01:39:43;;;;;;;4.40;4.10;;;;;;;13.05;100.00;99992.22;5018974;28;20670;-74
2023/04/29 01:42:23;;;;;;;4.03;3.73;;;;;;;13.06;100.00;99984.41;5018929;28;20219;-74
2023/04/29 01:44:52;;;;;;;5.20;4.80;;;;;;;13.10;100.00;99979.97;5019705;28;20212;-75
2023/04/29 01:47:17;;;;;;;4.93;4.53;;;;;;;13.14;100.00;99978.16;5019902;28;20191;-75
2023/04/29 01:49:45;;;;;;;4.73;4.43;;;;;;;13.13;100.00;99977.31;5006601;28;20187;-71
2023/04/29 01:52:11;;;;;;;4.57;4.20;;;;;;;13.15;100.00;99982.47;5020674;28;20765;-74
2023/04/29 01:54:37;;;;;;;4.40;4.10;;;;;;;13.17;100.00;99981.53;5019296;28;20186;-74
2023/04/29 01:57:02;;;;;;;4.70;4.30;;;;;;;13.23;100.00;99980.53;5010585;28;20188;-74
2023/04/29 01:59:27;;;;;;;5.27;4.87;;;;;;;13.26;100.00;99989.09;5008836;28;20193;-74
2023/04/29 02:01:55;;;;;;;4.93;4.53;;;;;;;13.28;100.00;99991.66;5010090;28;20238;-75
2023/04/29 02:04:20;;;;;;;4.63;4.23;;;;;;;13.27;100.00;99988.22;5021016;28;20557;-75
2023/04/29 02:06:45;;;;;;;4.87;4.40;;;;;;;13.25;100.00;99987.41;5019090;28;20182;-74
2023/04/29 02:09:11;;;;;;;4.43;4.13;;;;;;;13.22;100.00;99989.22;5012110;28;20190;-75
2023/04/29 02:11:36;;;;;;;5.03;4.53;;;;;;;13.20;100.00;99994.44;5018422;28;20211;-75
2023/04/29 02:14:01;;;;;;;4.60;4.30;;;;;;;13.17;100.00;99997.09;5021456;28;20192;-75
2023/04/29 02:16:27;;;;;;;4.70;4.30;;;;;;;13.15;100.00;99992.84;5021295;28;20188;-74
2023/04/29 02:18:52;;;;;;;5.23;4.77;;;;;;;13.14;100.00;99997.22;5021148;28;20191;-74
2023/04/29 02:21:17;;;;;;;5.20;4.80;;;;;;;13.14;100.00;100005.00;5021373;28;20219;-74
2023/04/29 02:23:43;;;;;;;4.50;4.20;;;;;;;13.13;100.00;100005.03;5017379;28;20214;-75
2023/04/29 02:26:09;;;;;;;5.00;4.60;;;;;;;13.10;100.00;99995.56;5025528;28;20230;-74
2023/04/29 02:28:35;;;;;;;5.23;4.83;;;;;;;13.08;100.00;100005.97;5023873;28;20185;-75
2023/04/29 02:31:01;;;;;;;5.50;5.00;;;;;;;13.03;100.00;100007.84;5023665;28;20213;-74
2023/04/29 02:33:26;;;;;;;4.93;4.53;;;;;;;12.98;100.00;100012.28;5024524;28;20186;-74
2023/04/29 02:35:52;;;;;;;5.20;4.70;;;;;;;12.92;100.00;100010.69;5014074;28;20203;-74
2023/04/29 02:38:17;;;;;;;5.30;4.80;;;;;;;12.87;100.00;100007.34;5012909;28;20191;-73
2023/04/29 02:40:44;;;;;;;5.70;5.30;;;;;;;12.82;100.00;100017.00;5026737;28;20223;-74
2023/04/29 02:43:10;;;;;;;5.23;4.93;;;;;;;12.76;100.00;100018.00;5026411;28;20212;-76
2023/04/29 02:45:36;;;;;;;4.63;4.33;;;;;;;12.72;100.00;100018.94;5027449;28;20198;-75
2023/04/29 02:48:02;;;;;;;5.80;5.00;;;;;;;12.69;100.00;100021.59;5024125;28;20196;-75
2023/04/29 02:50:27;;;;;;;5.30;4.90;;;;;;;12.65;100.00;100017.34;5024914;28;20329;-75
2023/04/29 02:52:53;;;;;;;6.77;5.40;;;;;;;12.61;100.00;100019.16;5025710;28;20649;-75
2023/04/29 02:55:18;;;;;;;6.00;5.50;;;;;;;12.58;100.00;100024.41;5023784;28;20219;-74
2023/04/29 02:57:44;;;;;;;5.93;5.43;;;;;;;12.54;100.00;100019.34;5012543;28;20190;-75
2023/04/29 03:00:09;;;;;;;6.20;5.63;;;;;;;12.48;100.00;100028.94;5025388;28;20270;-73
2023/04/29 03:02:36;;;;;;;6.43;5.93;;;;;;;12.44;100.00;100027.31;5023493;28;20692;-75
2023/04/29 03:05:01;;;;;;;5.97;5.37;;;;;;;12.40;100.00;100028.28;5023244;28;20217;-74
2023/04/29 03:07:28;;;;;;;5.50;5.10;;;;;;;12.37;100.00;100027.47;5023438;28;21155;-75
2023/04/29 03:09:54;;;;;;;5.97;5.57;;;;;;;12.32;100.00;100025.81;5023257;28;20187;-76
2023/04/29 03:12:20;;;;;;;6.07;5.57;;;;;;;12.29;100.00;100030.22;5024864;28;20210;-74
2023/04/29 03:14:46;;;;;;;6.03;5.53;;;;;;;12.27;100.00;100029.41;5022809;28;20193;-75
2023/04/29 03:17:11;;;;;;;4.87;4.57;;;;;;;12.22;100.00;100032.09;5024750;28;20577;-75
2023/04/29 03:19:36;;;;;;;5.57;5.17;;;;;;;12.19;100.00;100029.56;5022813;28;20179;-75
2023/04/29 03:22:02;;;;;;;5.47;5.07;;;;;;;12.15;100.00;100028.78;5022966;28;20222;-75
2023/04/29 03:24:27;;;;;;;5.90;5.50;;;;;;;12.12;100.00;100027.94;5023751;28;20217;-74
2023/04/29 03:26:53;;;;;;;6.07;5.57;;;;;;;12.07;100.00;100027.22;5024731;28;20267;-74
2023/04/29 03:29:19;;;;;;;5.33;4.93;;;;;;;12.04;100.00;100025.50;5017006;28;20223;-74
2023/04/29 03:31:44;;;;;;;5.73;5.33;;;;;;;11.99;100.00;100028.19;5022579;28;20840;-75
2023/04/29 03:34:10;;;;;;;5.20;4.80;;;;;;;11.96;100.00;100033.41;5025021;28;20219;-75
2023/04/29 03:36:35;;;;;;;5.03;4.63;;;;;;;11.93;100.00;100030.03;5025682;28;20192;-76
2023/04/29 03:39:01;;;;;;;5.07;4.67;;;;;;;11.90;100.00;100034.38;5016407;28;20817;-75
2023/04/29 03:41:26;;;;;;;5.00;4.60;;;;;;;11.88;100.00;100040.47;5015530;28;20220;-76
2023/04/29 03:43:51;;;;;;;5.30;4.90;;;;;;;11.83;100.00;100039.69;5024315;28;20290;-75
2023/04/29 03:46:17;;;;;;;5.33;4.67;;;;;;;11.79;100.00;100032.88;5024316;28;20695;-74
2023/04/29 03:48:42;;;;;;;4.83;4.53;;;;;;;11.74;100.00;100048.50;5024279;28;21017;-76
2023/04/29 03:51:08;;;;;;;5.10;4.70;;;;;;;11.70;100.00;100050.28;5011421;28;20368;-75
2023/04/29 03:53:35;;;;;;;4.87;4.47;;;;;;;11.68;100.00;100048.63;5022914;28;20194;-75
2023/04/29 03:56:00;;;;;;;5.40;4.90;;;;;;;11.65;100.00;100052.09;5013197;28;20333;-75
2023/04/29 03:58:26;;;;;;;4.93;4.53;;;;;;;11.62;100.00;100054.78;5023322;28;20196;-74
2023/04/29 04:00:51;;;;;;;5.50;4.93;;;;;;;11.58;100.00;100059.13;5019562;28;20241;-76
2023/04/29 04:03:16;;;;;;;4.87;4.50;;;;;;;11.56;100.00;100054.88;5024669;28;20870;-75
2023/04/29 04:05:42;;;;;;;5.10;4.80;;;;;;;11.53;100.00;100063.56;5020948;28;20224;-74
2023/04/29 04:08:07;;;;;;;5.10;4.60;;;;;;;11.52;100.00;100063.56;5024843;28;20198;-75
2023/04/29 04:10:32;;;;;;;5.20;4.80;;;;;;;11.49;100.00;100067.06;5023121;28;20220;-74
2023/04/29 04:12:57;;;;;;;5.33;4.93;;;;;;;11.48;100.00;100062.75;5010819;28;22000;-75
2023/04/29 04:15:23;;;;;;;4.60;4.27;;;;;;;11.46;100.00;100068.88;5024231;28;20188;-76
2023/04/29 04:17:48;;;;;;;4.67;4.37;;;;;;;11.46;100.00;100077.47;5020617;28;20198;-74
2023/04/29 04:20:14;;;;;;;4.57;4.17;;;;;;;11.43;100.00;100067.16;5020931;28;20193;-77
2023/04/29 04:22:39;;;;;;;4.57;4.27;;;;;;;11.42;100.00;100074.09;5027978;28;20229;-76
2023/04/29 04:25:06;;;;;;;5.10;4.70;;;;;;;11.41;100.00;100082.75;5021024;28;20267;-74
2023/04/29 04:27:31;;;;;;;4.80;4.40;;;;;;;11.42;100.00;100096.53;5021442;28;20249;-75
2023/04/29 04:29:56;;;;;;;5.03;4.57;;;;;;;11.41;100.00;100097.44;5024251;28;20289;-76
2023/04/29 04:32:22;;;;;;;5.27;4.87;;;;;;;11.40;100.00;100101.75;5022616;28;20692;-75
2023/04/29 04:34:48;;;;;;;4.43;4.13;;;;;;;11.39;100.00;100104.38;5023459;28;20190;-74
2023/04/29 04:37:14;;;;;;;4.07;3.73;;;;;;;11.40;100.00;100112.13;5026166;28;20291;-77
2023/04/29 04:39:39;;;;;;;4.53;4.13;;;;;;;11.40;100.00;100106.94;5008376;28;20840;-75
2023/04/29 04:42:04;;;;;;;4.83;4.33;;;;;;;11.42;100.00;100109.50;5005673;28;20293;-74
2023/04/29 04:44:30;;;;;;;4.53;4.23;;;;;;;11.44;100.00;100115.50;5020602;28;20235;-76
2023/04/29 04:46:55;;;;;;;4.40;4.10;;;;;;;11.46;100.00;100118.09;5020817;28;20195;-74
2023/04/29 04:49:23;;;;;;;4.30;3.90;;;;;;;11.47;100.00;100123.25;5024002;28;20202;-76
2023/04/29 04:51:49;;;;;;;5.00;4.60;;;;;;;11.53;100.00;100130.06;5018670;28;20209;-76
2023/04/29 04:54:14;;;;;;;4.20;3.90;;;;;;;11.59;100.00;100125.63;5024777;28;20202;-76
2023/04/29 04:56:40;;;;;;;4.70;4.30;;;;;;;11.66;100.00;100130.75;5025942;28;20192;-74
2023/04/29 04:59:05;;;;;;;4.50;4.10;;;;;;;11.72;100.00;100133.25;5022342;28;20298;-75
2023/04/29 05:01:30;;;;;;;4.00;3.70;;;;;;;11.74;100.00;100136.63;5025500;28;20220;-74
2023/04/29 05:03:56;;;;;;;3.90;3.53;;;;;;;11.79;100.00;100139.19;5023686;28;20203;-75
2023/04/29 05:06:22;;;;;;;4.00;3.60;;;;;;;11.85;100.00;100134.75;5026367;28;20190;-75
2023/04/29 05:08:47;;;;;;;3.87;3.60;;;;;;;12.05;100.00;100138.75;5024500;28;21776;-76
2023/04/29 05:11:20;;;;;;;3.80;3.50;;;;;;;12.30;100.00;100143.53;5023900;28;20309;-74
2023/04/29 05:13:46;;;;;;;4.07;3.77;;;;;;;12.40;100.00;100145.06;5020230;28;20183;-75
2023/04/29 05:16:12;;;;;;;3.27;3.00;;;;;;;12.41;100.00;100144.16;5026749;28;20212;-75
2023/04/29 05:18:37;;;;;;;4.67;3.57;;;;;;;12.57;100.00;100147.31;5000314;28;20643;-75
2023/04/29 05:21:03;;;;;;;5.60;3.03;;;;;;;12.90;100.00;100150.13;5005438;28;20864;-74
2023/04/29 05:23:28;;;;;;;3.50;3.20;;;;;;;13.15;100.00;100151.34;5020293;28;21589;-75
2023/04/29 05:25:54;;;;;;;3.20;2.90;;;;;;;13.20;100.00;100157.31;5028324;28;20188;-75
2023/04/29 05:28:19;;;;;;;3.27;3.03;;;;;;;13.37;100.00;100159.50;5024215;28;20200;-76
2023/04/29 05:30:45;;;;;;;2.80;2.60;;;;;;;14.12;100.00;100161.25;5002518;28;20332;-76
2023/04/29 05:33:10;;;;;;;2.57;2.37;;;;;;;14.86;100.00;100161.00;5015158;28;20212;-76
2023/04/29 05:35:36;;;;;;;2.20;2.00;;;;;;;15.06;100.00;100163.88;5019930;28;20244;-75
2023/04/29 05:38:02;;;;;;;3.00;2.40;;;;;;;14.82;100.00;100157.63;5013293;28;20873;-75
2023/04/29 05:40:27;;;;;;;3.57;2.40;;;;;;;14.57;100.00;100153.09;5017154;28;20206;-78
2023/04/29 05:42:53;;;;;;;2.13;1.93;;;;;;;14.41;100.00;100163.06;5006632;28;20179;-76
2023/04/29 05:45:18;;;;;;;2.43;2.23;;;;;;;14.30;100.00;100176.34;5021037;28;20278;-76
2023/04/29 05:47:44;;;;;;;2.13;2.00;;;;;;;14.96;100.00;100172.88;5016488;28;20201;-76
2023/04/29 05:50:10;;;;;;;2.40;2.20;;;;;;;16.03;100.00;100172.19;5018200;28;20197;-76
2023/04/29 05:52:36;;;;;;;2.27;2.07;;;;;;;17.31;100.00;100179.00;5016355;28;20239;-76
2023/04/29 05:55:01;;;;;;;1.90;1.80;;;;;;;18.40;100.00;100172.84;5023159;28;20218;-75
2023/04/29 05:57:26;;;;;;;1.90;1.80;;;;;;;19.23;100.00;100183.16;5025211;28;20191;-75
2023/04/29 05:59:54;;;;;;;1.57;1.47;;;;;;;19.85;97.21;100178.44;5022237;28;20550;-76
2023/04/29 06:02:19;;;;;;;2.30;1.53;;;;;;;20.33;94.95;100181.34;5024922;28;20241;-76
2023/04/29 06:04:47;;;;;;;2.00;1.57;;;;;;;20.67;93.56;100183.97;5014316;28;20234;-76
2023/04/29 06:07:13;;;;;;;2.03;1.80;;;;;;;21.17;91.39;100187.47;5007199;28;20617;-76
2023/04/29 06:09:38;;;;;;;1.73;1.63;;;;;;;21.55;88.55;100187.13;5021933;28;20197;-76
2023/04/29 06:12:04;;;;;;;2.10;1.83;;;;;;;21.58;86.62;100192.19;5024510;28;20207;-77
2023/04/29 06:14:30;;;;;;;1.43;1.33;;;;;;;21.48;87.37;100193.66;5025598;28;20835;-76
2023/04/29 06:16:55;;;;;;;2.40;1.70;;;;;;;21.61;87.54;100201.75;5023531;28;20215;-76
2023/04/29 06:19:21;;;;;;;1.30;1.20;;;;;;;22.06;86.00;100202.69;5024424;28;20318;-76
2023/04/29 06:21:46;;;;;;;1.53;1.43;;;;;;;22.73;83.99;100200.53;5023461;28;20211;-75
2023/04/29 06:24:11;;;;;;;1.50;1.40;;;;;;;23.22;82.31;100196.63;5022705;28;20207;-77
2023/04/29 06:26:37;;;;;;;1.40;1.30;;;;;;;22.74;82.39;100203.09;5022566;28;20274;-76
2023/04/29 06:29:03;;;;;;;1.50;1.40;;;;;;;21.92;85.00;100205.25;5024183;28;20180;-76
2023/04/29 06:31:28;;;;;;;1.53;1.40;;;;;;;21.34;86.74;100209.38;5018931;28;20203;-77
2023/04/29 06:33:54;;;;;;;1.90;1.53;;;;;;;20.91;88.40;100213.41;5023606;28;20176;-76
2023/04/29 06:36:19;;;;;;;1.67;1.37;;;;;;;20.38;90.08;100212.63;5020913;28;20180;-76
2023/04/29 06:38:45;;;;;;;1.50;1.40;;;;;;;19.90;91.17;100223.75;5012341;28;20184;-77
2023/04/29 06:41:10;;;;;;;2.33;1.47;;;;;;;19.49;92.91;100219.53;5022982;28;20318;-77
2023/04/29 06:43:35;;;;;;;2.10;1.37;;;;;;;19.25;93.63;100223.31;5020774;28;20687;-77
2023/04/29 06:46:01;;;;;;;1.63;1.50;;;;;;;19.06;94.16;100229.38;5020504;28;20572;-76
2023/04/29 06:48:26;;;;;;;1.47;1.37;;;;;;;18.89;94.87;100230.13;5023571;28;20225;-76
2023/04/29 06:50:54;;;;;;;1.87;1.70;;;;;;;18.70;93.83;100228.31;5022066;28;20281;-76
2023/04/29 06:53:19;;;;;;;1.83;1.73;;;;;;;18.52;94.56;100231.72;5021327;28;20915;-77
2023/04/29 06:55:45;;;;;;;1.73;1.63;;;;;;;18.39;95.33;100232.25;4997626;28;20192;-77
2023/04/29 06:58:12;;;;;;;1.53;1.30;;;;;;;18.23;95.52;100239.91;5024281;28;20237;-77
2023/04/29 07:00:38;;;;;;;2.97;1.70;;;;;;;18.23;96.01;100236.44;5019969;28;20195;-76
2023/04/29 07:03:03;;;;;;;1.70;1.60;;;;;;;18.57;94.83;100238.47;5021862;28;20238;-75
2023/04/29 07:05:28;;;;;;;1.60;1.50;;;;;;;19.35;92.20;100242.94;5018839;28;20190;-76
2023/04/29 07:07:54;;;;;;;1.63;1.53;;;;;;;19.76;90.25;100242.75;5021336;28;20266;-76
2023/04/29 07:10:19;;;;;;;2.13;1.60;;;;;;;20.25;89.26;100241.31;5005583;28;20191;-76
2023/04/29 07:12:44;;;;;;;1.60;1.50;;;;;;;21.10;86.28;100242.22;5023724;28;20181;-77
2023/04/29 07:15:10;;;;;;;2.33;1.57;;;;;;;21.20;85.36;100247.81;5005710;28;20172;-76
2023/04/29 07:17:35;;;;;;;1.57;1.47;;;;;;;20.69;86.65;100248.69;5025752;28;20670;-77
2023/04/29 07:20:01;;;;;;;1.57;1.47;;;;;;;20.06;88.22;100247.47;5025213;28;20221;-77
2023/04/29 07:22:26;;;;;;;1.60;1.50;;;;;;;19.91;89.17;100261.34;5009703;28;20231;-76
2023/04/29 07:24:55;;;;;;;1.93;1.53;;;;;;;20.74;87.18;100261.59;5000009;28;20202;-74
2023/04/29 07:27:21;;;;;;;2.03;1.83;;;;;;;21.77;84.12;100259.66;5007268;28;20240;-77
2023/04/29 07:29:47;;;;;;;2.03;1.60;;;;;;;22.64;81.54;100257.31;5025037;28;21170;-75
2023/04/29 07:32:12;;;;;;;1.70;1.60;;;;;;;23.12;79.81;100257.91;5025142;28;20226;-76
2023/04/29 07:34:38;;;;;;;1.80;1.60;;;;;;;23.62;78.56;100256.63;5023590;28;20710;-76
2023/04/29 07:37:03;;;;;;;2.00;1.60;;;;;;;23.87;77.16;100261.16;5023233;28;20606;-76
2023/04/29 07:39:29;;;;;;;2.00;1.90;;;;;;;23.41;77.22;100265.81;5005491;28;20740;-78
2023/04/29 07:41:54;;;;;;;1.63;1.53;;;;;;;22.70;78.53;100267.50;5017238;28;20200;-76
2023/04/29 07:44:20;;;;;;;2.03;1.83;;;;;;;22.02;80.37;100274.94;5018864;28;20667;-76
2023/04/29 07:46:46;;;;;;;2.00;1.80;;;;;;;21.40;81.48;100278.31;5016213;28;20644;-76
2023/04/29 07:49:12;;;;;;;2.27;1.60;;;;;;;20.95;83.14;100279.84;5018705;28;20237;-76
2023/04/29 07:51:40;;;;;;;1.57;1.47;;;;;;;20.58;84.14;100279.94;5017342;28;20261;-76
2023/04/29 07:54:06;;;;;;;1.60;1.50;;;;;;;20.71;83.76;100282.81;5015015;28;20912;-76
2023/04/29 07:56:31;;;;;;;2.00;1.90;;;;;;;20.53;83.33;100277.56;5016082;28;20175;-76
2023/04/29 07:58:59;;;;;;;1.80;1.70;;;;;;;20.58;83.29;100276.47;5016630;28;20187;-76
2023/04/29 08:01:24;;;;;;;1.97;1.87;;;;;;;20.91;82.17;100275.69;5019542;28;20839;-77
2023/04/29 08:03:49;;;;;;;2.47;1.83;;;;;;;21.21;81.24;100282.88;5003371;28;20256;-77
2023/04/29 08:06:15;;;;;;;2.27;1.80;;;;;;;21.29;80.94;100278.06;5024154;28;20690;-76
2023/04/29 08:08:40;;;;;;;1.63;1.53;;;;;;;21.24;80.93;100291.47;5022894;28;21506;-76
2023/04/29 08:11:14;;;;;;;1.90;1.80;;;;;;;21.29;80.89;100292.06;5022644;28;20206;-76
2023/04/29 08:13:39;;;;;;;2.10;1.90;;;;;;;21.24;80.93;100293.25;5024469;28;20229;-76
2023/04/29 08:16:05;;;;;;;1.90;1.63;;;;;;;21.01;81.04;100292.69;5016645;28;20655;-76
2023/04/29 08:18:30;;;;;;;1.70;1.60;;;;;;;20.63;81.65;100288.47;5021146;28;20314;-78
2023/04/29 08:20:55;;;;;;;2.20;2.00;;;;;;;20.26;82.47;100298.19;5017165;28;20204;-76
2023/04/29 08:23:21;;;;;;;1.60;1.50;;;;;;;19.93;83.40;100289.25;5021634;28;20222;-76
2023/04/29 08:25:46;;;;;;;1.90;1.67;;;;;;;19.74;84.23;100291.03;5018475;28;20183;-76
2023/04/29 08:28:11;;;;;;;2.20;1.80;;;;;;;19.73;84.12;100299.81;5018002;28;20194;-75
2023/04/29 08:30:39;;;;;;;2.13;1.70;;;;;;;19.84;84.17;100296.69;5014395;28;20612;-76
2023/04/29 08:33:05;;;;;;;2.00;1.90;;;;;;;19.97;83.91;100292.59;4999940;28;20184;-76
2023/04/29 08:35:30;;;;;;;1.90;1.80;;;;;;;20.07;83.27;100291.19;5018189;28;20179;-76
2023/04/29 08:37:56;;;;;;;1.80;1.70;;;;;;;20.04;83.62;100299.22;5016345;28;20260;-77
2023/04/29 08:40:21;;;;;;;1.50;1.40;;;;;;;19.82;83.88;100299.38;5016639;28;20529;-76
2023/04/29 08:42:48;;;;;;;1.90;1.80;;;;;;;19.60;84.45;100296.91;5021024;28;20186;-75
2023/04/29 08:45:16;;;;;;;1.73;1.63;;;;;;;19.49;84.84;100308.75;5022737;28;20281;-77
2023/04/29 08:47:42;;;;;;;1.87;1.70;;;;;;;19.46;85.02;100314.16;5018145;28;20186;-76
2023/04/29 08:50:08;;;;;;;1.97;1.77;;;;;;;19.42;84.73;100311.72;5024909;28;20191;-74
2023/04/29 08:52:34;;;;;;;2.13;1.93;;;;;;;19.45;84.96;100301.94;5024355;28;20221;-76
2023/04/29 08:55:01;;;;;;;1.70;1.60;;;;;;;19.64;84.93;100299.34;5021241;28;21063;-76
2023/04/29 08:57:28;;;;;;;1.50;1.40;;;;;;;19.91;84.07;100306.00;5019051;28;20263;-76
2023/04/29 08:59:54;;;;;;;1.60;1.50;;;;;;;20.10;83.93;100303.34;5023287;28;20245;-77
2023/04/29 09:02:21;;;;;;;2.07;1.90;;;;;;;20.21;82.90;100293.16;5022447;28;20234;-76
2023/04/29 09:04:56;;;;;;;1.97;1.87;;;;;;;20.19;82.01;100310.78;5023345;28;20211;-76
2023/04/29 09:07:23;;;;;;;2.00;1.90;;;;;;;20.14;82.58;100309.31;5005215;28;20526;-77
2023/04/29 09:09:50;;;;;;;1.70;1.60;;;;;;;20.08;82.27;100313.09;5020013;28;20756;-76
2023/04/29 09:12:15;;;;;;;1.70;1.60;;;;;;;19.99;82.49;100305.63;5023421;28;20285;-76
2023/04/29 09:14:41;;;;;;;2.33;2.17;;;;;;;19.89;82.39;100310.50;5020119;28;20262;-77
2023/04/29 09:17:06;;;;;;;2.20;2.00;;;;;;;19.79;82.96;100315.28;5025081;28;20184;-76
2023/04/29 09:19:35;;;;;;;2.30;2.10;;;;;;;19.69;82.47;100324.50;5023562;28;20180;-75
2023/04/29 09:22:02;;;;;;;2.13;1.93;;;;;;;19.55;82.89;100322.53;5024293;28;20250;-77
2023/04/29 09:24:30;;;;;;;2.67;2.30;;;;;;;19.43;83.15;100330.06;5021430;28;20215;-76
2023/04/29 09:26:57;;;;;;;2.03;1.90;;;;;;;19.35;83.26;100326.91;5004941;28;20200;-76
2023/04/29 09:29:23;;;;;;;2.07;1.97;;;;;;;19.30;84.09;100328.88;5021368;28;20179;-76
2023/04/29 09:31:50;;;;;;;2.50;2.10;;;;;;;19.24;83.17;100327.38;5023585;28;20215;-76
2023/04/29 09:34:15;;;;;;;2.50;2.30;;;;;;;19.16;83.36;100322.47;5022351;28;20183;-76
2023/04/29 09:36:47;;;;;;;2.20;2.00;;;;;;;19.12;83.97;100320.94;5025555;28;20792;-76
2023/04/29 09:39:17;;;;;;;2.00;1.77;;;;;;;19.14;83.99;100326.09;5015686;28;20178;-76
2023/04/29 09:41:49;;;;;;;2.70;2.10;;;;;;;19.12;84.38;100328.81;5016999;28;20208;-75
2023/04/29 09:44:15;;;;;;;2.50;2.30;;;;;;;19.10;84.48;100329.78;5014627;28;20204;-76
2023/04/29 09:46:40;;;;;;;2.13;1.90;;;;;;;19.11;84.58;100334.97;5019829;28;20190;-76
2023/04/29 09:49:23;;;;;;;2.27;2.07;;;;;;;19.18;84.54;100335.53;4999475;28;20184;-76
2023/04/29 09:51:53;;;;;;;2.60;2.40;;;;;;;19.33;84.26;100332.25;5016831;28;20589;-76
2023/04/29 09:54:29;;;;;;;2.23;2.03;;;;;;;19.50;83.86;100330.63;5022021;28;20188;-77
2023/04/29 09:56:57;;;;;;;4.63;2.57;;;;;;;19.56;83.06;100330.31;5017814;28;20187;-76
2023/04/29 09:59:23;;;;;;;3.43;2.23;;;;;;;19.65;83.07;100326.44;5023203;28;20191;-76
2023/04/29 10:01:51;;;;;;;2.40;2.20;;;;;;;19.83;82.88;100329.13;5022967;28;20239;-76
2023/04/29 10:04:18;;;;;;;2.30;2.10;;;;;;;19.99;82.65;100321.38;5001073;28;20370;-73
2023/04/29 10:06:45;;;;;;;2.70;2.50;;;;;;;20.19;82.42;100325.72;5018625;28;20184;-75
2023/04/29 10:09:16;;;;;;;2.63;2.30;;;;;;;20.43;81.87;100322.78;5022365;28;20823;-75
2023/04/29 10:11:46;;;;;;;2.57;2.37;;;;;;;20.61;80.67;100327.13;5019631;28;20212;-76
2023/04/29 10:14:15;;;;;;;3.37;2.43;;;;;;;20.68;79.66;100317.97;5021979;28;20179;-76
2023/04/29 10:16:49;;;;;;;2.63;2.43;;;;;;;20.79;78.70;100321.91;5022492;28;20184;-76
2023/04/29 10:19:22;;;;;;;2.57;2.37;;;;;;;20.82;78.32;100322.59;5021467;28;20192;-75
2023/04/29 10:21:48;;;;;;;2.50;2.30;;;;;;;20.89;78.29;100322.25;5017060;28;20211;-75
2023/04/29 10:24:16;;;;;;;2.73;2.53;;;;;;;21.01;78.35;100329.53;5020079;28;20235;-76
2023/04/29 10:26:43;;;;;;;3.13;2.23;;;;;;;21.15;77.46;100318.25;5021967;28;20199;-75
2023/04/29 10:29:10;;;;;;;2.10;1.90;;;;;;;21.25;77.29;100318.63;5022281;28;21117;-75
2023/04/29 10:31:37;;;;;;;2.50;2.30;;;;;;;21.43;76.80;100311.53;5017143;28;20263;-76
2023/04/29 10:34:02;;;;;;;2.10;1.90;;;;;;;21.62;75.21;100314.88;5026078;28;20842;-75
2023/04/29 10:36:30;;;;;;;2.87;2.67;;;;;;;21.97;74.48;100307.75;5021359;28;20187;-76
2023/04/29 10:38:59;;;;;;;2.57;2.37;;;;;;;22.18;73.16;100303.88;5005087;28;20214;-76
2023/04/29 10:41:41;;;;;;;2.40;2.20;;;;;;;22.52;72.69;100301.94;5024663;28;20229;-75
2023/04/29 10:44:06;;;;;;;2.30;1.90;;;;;;;22.78;71.82;100306.63;5022605;28;20697;-77
2023/04/29 10:46:32;;;;;;;4.23;2.73;;;;;;;22.99;70.98;100301.84;5024563;28;20254;-76
2023/04/29 10:49:05;;;;;;;2.63;2.47;;;;;;;22.97;71.06;100306.34;5027026;28;20260;-75
2023/04/29 10:51:44;;;;;;;2.50;2.30;;;;;;;22.92;71.04;100300.50;5022178;28;20210;-76
2023/04/29 10:54:24;;;;;;;2.30;2.10;;;;;;;22.86;71.31;100299.06;5005580;28;20245;-77
2023/04/29 10:56:51;;;;;;;2.30;2.10;;;;;;;22.95;70.81;100305.59;5025689;28;20194;-76
2023/04/29 10:59:21;;;;;;;2.50;2.30;;;;;;;23.03;70.90;100292.78;5028268;28;20244;-75
2023/04/29 11:01:49;;;;;;;2.67;2.47;;;;;;;22.95;70.46;100293.25;5024471;28;20203;-76
2023/04/29 11:04:15;;;;;;;2.73;2.53;;;;;;;22.75;70.39;100290.97;5024136;28;21372;-75
2023/04/29 11:06:44;;;;;;;2.63;2.43;;;;;;;22.35;71.18;100288.88;5025494;28;20581;-76
2023/04/29 11:09:25;;;;;;;2.50;2.30;;;;;;;21.94;71.82;100287.69;5021150;28;20187;-77
2023/04/29 11:12:08;;;;;;;3.07;2.60;;;;;;;21.48;72.66;100289.28;5020413;28;20211;-75
2023/04/29 11:14:39;;;;;;;2.60;2.40;;;;;;;21.09;73.86;100281.78;5026414;28;20168;-77
2023/04/29 11:17:09;;;;;;;2.70;2.50;;;;;;;20.78;74.32;100283.38;5022127;28;20188;-76
2023/04/29 11:19:41;;;;;;;2.47;2.27;;;;;;;20.45;75.02;100284.97;5027044;28;20191;-75